This is the latest recevied weather packets stored in our database for station/object DH1NAI-6. If no packets are shown the sender has not sent any weather packets the latest 10 day(s).
| Time | Temp. | Humidity | Pressure | Rain* | Wind** | Luminosity | Snow |
|---|---|---|---|---|---|---|---|
| 1788113267 | 15.56° C | 87% | 1013.3 hPa | 0 mm | - | 0 W/m² | - |
| 1788112651 | 16.67° C | 84% | 1013.3 hPa | 0 mm | - | 1 W/m² | - |
| 1788112051 | 17.78° C | 78% | 1013.1 hPa | 0 mm | - | 2 W/m² | - |
| 1788111442 | 18.89° C | 71% | 1013 hPa | 0 mm | - | 4 W/m² | - |
| 1788110818 | 19.44° C | 68% | 1013 hPa | 0 mm | - | 7 W/m² | - |
| 1788110194 | 20° C | 66% | 1013 hPa | 0 mm | - | 9 W/m² | - |
| 1788109586 | 20.56° C | 65% | 1013.1 hPa | 0 mm | - | 12 W/m² | - |
| 1788108979 | 20.56° C | 63% | 1012.9 hPa | 0 mm | - | 14 W/m² | - |
| 1788108370 | 20.56° C | 62% | 1013 hPa | 0 mm | - | 18 W/m² | - |
| 1788107763 | 21.11° C | 59% | 1013 hPa | 0 mm | - | 20 W/m² | - |
| 1788107154 | 21.11° C | 59% | 1013.3 hPa | 0 mm | - | 25 W/m² | - |
| 1788106547 | 21.11° C | 58% | 1013 hPa | 0 mm | - | 26 W/m² | - |
| 1788105931 | 21.67° C | 58% | 1012.8 hPa | 0 mm | - | 29 W/m² | - |
| 1788105331 | 21.67° C | 57% | 1013.2 hPa | 0 mm | - | 43 W/m² | - |
| 1788104722 | 21.67° C | 56% | 1013.3 hPa | 0 mm | - | 42 W/m² | - |
| 1788104115 | 21.67° C | 57% | 1013.3 hPa | 0 mm | - | 43 W/m² | - |
| 1788103506 | 22.22° C | 57% | 1013.3 hPa | 0 mm | - | 36 W/m² | - |
| 1788102899 | 22.78° C | 56% | 1013.1 hPa | 0 mm | - | 67 W/m² | - |
| 1788102290 | 22.22° C | 56% | 1013 hPa | 0 mm | - | 68 W/m² | - |
| 1788101683 | 22.22° C | 57% | 1013.1 hPa | 0 mm | - | 49 W/m² | - |
| 1788101071 | 22.78° C | 58% | 1013.1 hPa | 0 mm | - | 41 W/m² | - |
| 1788100467 | 22.22° C | 58% | 1013.2 hPa | 0 mm | - | 54 W/m² | - |
| 1788099858 | 22.78° C | 56% | 1013.1 hPa | 0 mm | - | 39 W/m² | - |
| 1788099251 | 22.22° C | 57% | 1013.1 hPa | 0 mm | - | 46 W/m² | - |
| 1788098642 | 21.67° C | 60% | 1013 hPa | 0 mm | - | 39 W/m² | - |
* Rain latest hour (hover to see other rain measurements)
** Current wind speed in m/s (hover to see current wind gust speed)